sensor_id;sensor_type;location;lat;lon;timestamp;pressure;altitude;pressure_sealevel;temperature;humidity
61906;BME280;47863;55.766;37.672;2023-03-01T00:02:20;99058.81;;;-5.72;73.04
61906;BME280;47863;55.766;37.672;2023-03-01T00:04:46;99061.34;;;-5.70;73.48
61906;BME280;47863;55.766;37.672;2023-03-01T00:07:12;99055.19;;;-5.69;73.01
61906;BME280;47863;55.766;37.672;2023-03-01T00:09:37;99026.81;;;-5.93;72.90
61906;BME280;47863;55.766;37.672;2023-03-01T00:12:04;99037.63;;;-5.83;73.54
61906;BME280;47863;55.766;37.672;2023-03-01T00:14:29;99045.31;;;-5.80;73.24
61906;BME280;47863;55.766;37.672;2023-03-01T00:16:55;99054.66;;;-5.76;73.27
61906;BME280;47863;55.766;37.672;2023-03-01T00:19:20;99049.28;;;-5.73;72.39
61906;BME280;47863;55.766;37.672;2023-03-01T00:21:47;99054.66;;;-5.76;72.82
61906;BME280;47863;55.766;37.672;2023-03-01T00:24:13;99039.41;;;-5.84;73.07
61906;BME280;47863;55.766;37.672;2023-03-01T00:26:39;99049.66;;;-5.81;73.01
61906;BME280;47863;55.766;37.672;2023-03-01T00:29:05;99047.22;;;-5.84;73.27
61906;BME280;47863;55.766;37.672;2023-03-01T00:31:32;99026.13;;;-5.96;72.82
61906;BME280;47863;55.766;37.672;2023-03-01T00:34:03;99037.09;;;-5.90;73.34
61906;BME280;47863;55.766;37.672;2023-03-01T00:36:34;99043.00;;;-5.86;72.84
61906;BME280;47863;55.766;37.672;2023-03-01T00:39:01;99049.97;;;-5.87;72.06
61906;BME280;47863;55.766;37.672;2023-03-01T00:41:27;98990.69;;;-6.18;72.44
61906;BME280;47863;55.766;37.672;2023-03-01T00:43:53;99042.44;;;-5.93;72.99
61906;BME280;47863;55.766;37.672;2023-03-01T00:46:21;99035.75;;;-5.97;72.79
61906;BME280;47863;55.766;37.672;2023-03-01T00:48:47;99040.25;;;-6.01;73.09
61906;BME280;47863;55.766;37.672;2023-03-01T00:51:15;99039.13;;;-5.95;72.57
61906;BME280;47863;55.766;37.672;2023-03-01T00:53:42;99014.03;;;-6.15;73.06
61906;BME280;47863;55.766;37.672;2023-03-01T00:56:10;99045.25;;;-5.96;72.45
61906;BME280;47863;55.766;37.672;2023-03-01T00:58:36;99044.41;;;-5.96;72.97
61906;BME280;47863;55.766;37.672;2023-03-01T01:01:14;99041.88;;;-5.98;72.78
61906;BME280;47863;55.766;37.672;2023-03-01T01:03:51;99019.00;;;-6.10;72.52
61906;BME280;47863;55.766;37.672;2023-03-01T01:06:29;99043.50;;;-5.95;72.67
61906;BME280;47863;55.766;37.672;2023-03-01T01:08:56;99019.88;;;-6.10;72.48
61906;BME280;47863;55.766;37.672;2023-03-01T01:11:23;99038.34;;;-5.97;72.65
61906;BME280;47863;55.766;37.672;2023-03-01T01:13:49;99025.09;;;-6.10;72.38
61906;BME280;47863;55.766;37.672;2023-03-01T01:16:17;99037.44;;;-5.96;71.89
61906;BME280;47863;55.766;37.672;2023-03-01T01:18:43;99039.91;;;-5.94;72.11
61906;BME280;47863;55.766;37.672;2023-03-01T01:21:12;99029.13;;;-6.04;72.07
61906;BME280;47863;55.766;37.672;2023-03-01T01:23:39;99003.84;;;-6.20;72.14
61906;BME280;47863;55.766;37.672;2023-03-01T01:26:07;99039.56;;;-6.04;72.08
61906;BME280;47863;55.766;37.672;2023-03-01T01:28:33;99033.09;;;-6.14;72.74
61906;BME280;47863;55.766;37.672;2023-03-01T01:30:59;99045.06;;;-6.10;72.20
61906;BME280;47863;55.766;37.672;2023-03-01T01:33:25;99028.38;;;-6.24;72.91
61906;BME280;47863;55.766;37.672;2023-03-01T01:35:50;99013.94;;;-6.31;72.45
61906;BME280;47863;55.766;37.672;2023-03-01T01:38:16;99037.41;;;-6.13;72.41
61906;BME280;47863;55.766;37.672;2023-03-01T01:40:49;99039.97;;;-6.12;72.57
61906;BME280;47863;55.766;37.672;2023-03-01T01:43:25;99035.00;;;-6.18;72.16
61906;BME280;47863;55.766;37.672;2023-03-01T01:45:52;99024.06;;;-6.25;72.45
61906;BME280;47863;55.766;37.672;2023-03-01T01:48:22;99051.22;;;-6.11;72.51
61906;BME280;47863;55.766;37.672;2023-03-01T01:51:00;99048.03;;;-6.18;72.88
61906;BME280;47863;55.766;37.672;2023-03-01T01:53:26;99037.78;;;-6.21;72.70
61906;BME280;47863;55.766;37.672;2023-03-01T01:55:54;99017.00;;;-6.23;72.53
61906;BME280;47863;55.766;37.672;2023-03-01T01:58:24;99046.94;;;-5.95;72.65
61906;BME280;47863;55.766;37.672;2023-03-01T02:00:52;99047.22;;;-5.84;71.91
61906;BME280;47863;55.766;37.672;2023-03-01T02:03:22;99033.19;;;-5.81;72.59
61906;BME280;47863;55.766;37.672;2023-03-01T02:05:50;99049.22;;;-5.71;72.28
61906;BME280;47863;55.766;37.672;2023-03-01T02:08:19;98989.94;;;-6.03;72.24
61906;BME280;47863;55.766;37.672;2023-03-01T02:10:46;99048.44;;;-5.73;72.47
61906;BME280;47863;55.766;37.672;2023-03-01T02:13:13;99049.47;;;-5.76;72.07
61906;BME280;47863;55.766;37.672;2023-03-01T02:15:40;99042.91;;;-5.85;72.55
61906;BME280;47863;55.766;37.672;2023-03-01T02:18:07;99032.44;;;-6.01;72.09
61906;BME280;47863;55.766;37.672;2023-03-01T02:23:20;99047.94;;;-5.97;72.50
61906;BME280;47863;55.766;37.672;2023-03-01T02:26:11;99051.75;;;-6.05;72.63
61906;BME280;47863;55.766;37.672;2023-03-01T02:28:43;99044.59;;;-6.19;72.62
61906;BME280;47863;55.766;37.672;2023-03-01T02:31:10;99049.75;;;-6.17;72.22
61906;BME280;47863;55.766;37.672;2023-03-01T02:33:58;99054.31;;;-6.22;72.79
61906;BME280;47863;55.766;37.672;2023-03-01T02:36:26;99051.19;;;-6.29;72.74
61906;BME280;47863;55.766;37.672;2023-03-01T02:38:57;99054.63;;;-6.28;72.40
61906;BME280;47863;55.766;37.672;2023-03-01T02:41:25;99046.41;;;-6.38;72.64
61906;BME280;47863;55.766;37.672;2023-03-01T02:43:52;99060.06;;;-6.33;72.75
61906;BME280;47863;55.766;37.672;2023-03-01T02:46:23;99054.16;;;-6.36;72.79
61906;BME280;47863;55.766;37.672;2023-03-01T02:48:52;99052.75;;;-6.44;73.38
61906;BME280;47863;55.766;37.672;2023-03-01T02:54:18;98979.44;;;-6.91;72.90
61906;BME280;47863;55.766;37.672;2023-03-01T02:56:47;99026.72;;;-6.63;72.52
61906;BME280;47863;55.766;37.672;2023-03-01T02:59:18;99058.66;;;-6.40;71.67
61906;BME280;47863;55.766;37.672;2023-03-01T03:01:44;99056.06;;;-6.40;72.16
61906;BME280;47863;55.766;37.672;2023-03-01T03:04:14;99057.06;;;-6.43;72.58
61906;BME280;47863;55.766;37.672;2023-03-01T03:06:44;99059.66;;;-6.43;72.11
61906;BME280;47863;55.766;37.672;2023-03-01T03:09:10;99024.34;;;-6.67;72.26
61906;BME280;47863;55.766;37.672;2023-03-01T03:11:36;99052.25;;;-6.52;72.12
61906;BME280;47863;55.766;37.672;2023-03-01T03:14:02;99059.13;;;-6.49;71.62
61906;BME280;47863;55.766;37.672;2023-03-01T03:16:28;99065.38;;;-6.53;71.87
61906;BME280;47863;55.766;37.672;2023-03-01T03:18:56;99048.34;;;-6.61;72.22
61906;BME280;47863;55.766;37.672;2023-03-01T03:21:32;99066.50;;;-6.59;72.05
61906;BME280;47863;55.766;37.672;2023-03-01T03:23:58;99054.75;;;-6.68;72.57
61906;BME280;47863;55.766;37.672;2023-03-01T03:26:23;99070.38;;;-6.68;71.89
61906;BME280;47863;55.766;37.672;2023-03-01T03:28:49;99059.03;;;-6.67;72.12
61906;BME280;47863;55.766;37.672;2023-03-01T03:31:15;99048.22;;;-6.76;72.47
61906;BME280;47863;55.766;37.672;2023-03-01T03:33:40;99042.41;;;-6.83;72.03
61906;BME280;47863;55.766;37.672;2023-03-01T03:36:06;99036.88;;;-6.94;72.00
61906;BME280;47863;55.766;37.672;2023-03-01T03:38:32;99060.03;;;-6.69;72.02
61906;BME280;47863;55.766;37.672;2023-03-01T03:41:03;99072.84;;;-6.65;71.98
61906;BME280;47863;55.766;37.672;2023-03-01T03:43:30;99078.00;;;-6.63;71.98
61906;BME280;47863;55.766;37.672;2023-03-01T03:45:56;99056.91;;;-6.78;71.96
61906;BME280;47863;55.766;37.672;2023-03-01T03:48:25;99076.63;;;-6.72;72.03
61906;BME280;47863;55.766;37.672;2023-03-01T03:50:55;99065.84;;;-6.83;72.05
61906;BME280;47863;55.766;37.672;2023-03-01T03:53:22;99077.84;;;-6.79;72.40
61906;BME280;47863;55.766;37.672;2023-03-01T03:55:48;99079.69;;;-6.81;71.91
61906;BME280;47863;55.766;37.672;2023-03-01T03:58:18;99071.16;;;-6.85;72.44
61906;BME280;47863;55.766;37.672;2023-03-01T04:00:45;99079.94;;;-6.87;73.09
61906;BME280;47863;55.766;37.672;2023-03-01T04:03:13;99055.44;;;-7.02;72.50
61906;BME280;47863;55.766;37.672;2023-03-01T04:05:40;99037.69;;;-7.13;72.45
61906;BME280;47863;55.766;37.672;2023-03-01T04:08:06;99063.97;;;-6.99;72.38
61906;BME280;47863;55.766;37.672;2023-03-01T04:10:41;99080.78;;;-6.87;72.79
61906;BME280;47863;55.766;37.672;2023-03-01T04:13:09;99079.38;;;-6.94;72.14
61906;BME280;47863;55.766;37.672;2023-03-01T04:15:35;99098.03;;;-6.84;72.14
61906;BME280;47863;55.766;37.672;2023-03-01T04:18:02;99084.06;;;-6.83;72.66
61906;BME280;47863;55.766;37.672;2023-03-01T04:20:30;99080.78;;;-6.87;72.46
61906;BME280;47863;55.766;37.672;2023-03-01T04:22:58;99090.78;;;-6.78;72.50
61906;BME280;47863;55.766;37.672;2023-03-01T04:25:24;99098.31;;;-6.71;72.39
61906;BME280;47863;55.766;37.672;2023-03-01T04:27:50;99038.00;;;-7.00;72.29
61906;BME280;47863;55.766;37.672;2023-03-01T04:30:15;99086.09;;;-6.69;73.04
61906;BME280;47863;55.766;37.672;2023-03-01T04:32:41;99080.94;;;-6.71;72.23
61906;BME280;47863;55.766;37.672;2023-03-01T04:35:07;99100.16;;;-6.54;72.99
61906;BME280;47863;55.766;37.672;2023-03-01T04:37:33;99096.50;;;-6.50;72.08
61906;BME280;47863;55.766;37.672;2023-03-01T04:40:00;99083.47;;;-6.50;72.20
61906;BME280;47863;55.766;37.672;2023-03-01T04:42:26;99047.63;;;-6.64;72.30
61906;BME280;47863;55.766;37.672;2023-03-01T04:44:52;99084.81;;;-6.42;72.73
61906;BME280;47863;55.766;37.672;2023-03-01T04:47:17;99105.50;;;-6.20;72.64
61906;BME280;47863;55.766;37.672;2023-03-01T04:49:43;99104.53;;;-6.00;72.21
61906;BME280;47863;55.766;37.672;2023-03-01T04:52:08;99090.34;;;-5.76;72.61
61906;BME280;47863;55.766;37.672;2023-03-01T04:54:35;99102.63;;;-5.61;72.63
61906;BME280;47863;55.766;37.672;2023-03-01T04:57:02;99113.50;;;-5.53;72.15
61906;BME280;47863;55.766;37.672;2023-03-01T04:59:28;99103.78;;;-5.49;72.22
61906;BME280;47863;55.766;37.672;2023-03-01T05:01:55;99072.75;;;-5.73;71.85
61906;BME280;47863;55.766;37.672;2023-03-01T05:04:24;99109.09;;;-5.51;72.32
61906;BME280;47863;55.766;37.672;2023-03-01T05:06:50;99083.59;;;-5.63;72.30
61906;BME280;47863;55.766;37.672;2023-03-01T05:09:16;99072.88;;;-5.74;72.07
61906;BME280;47863;55.766;37.672;2023-03-01T05:11:42;99113.22;;;-5.47;71.88
61906;BME280;47863;55.766;37.672;2023-03-01T05:14:09;99106.16;;;-5.45;72.54
61906;BME280;47863;55.766;37.672;2023-03-01T05:16:35;99110.31;;;-5.41;72.08
61906;BME280;47863;55.766;37.672;2023-03-01T05:19:03;99119.88;;;-5.24;72.22
61906;BME280;47863;55.766;37.672;2023-03-01T05:21:40;99126.44;;;-4.82;72.40
61906;BME280;47863;55.766;37.672;2023-03-01T05:24:26;99098.25;;;-4.11;72.22
61906;BME280;47863;55.766;37.672;2023-03-01T05:26:52;99121.31;;;-2.97;71.63
61906;BME280;47863;55.766;37.672;2023-03-01T05:29:22;99110.06;;;-2.00;71.18
61906;BME280;47863;55.766;37.672;2023-03-01T05:34:27;99127.75;;;-0.32;70.14
61906;BME280;47863;55.766;37.672;2023-03-01T05:36:53;99133.56;;;-0.03;70.01
61906;BME280;47863;55.766;37.672;2023-03-01T05:39:24;99093.91;;;-0.13;69.72
61906;BME280;47863;55.766;37.672;2023-03-01T05:41:59;99083.00;;;-0.32;69.74
61906;BME280;47863;55.766;37.672;2023-03-01T05:44:25;99137.34;;;-0.31;69.91
61906;BME280;47863;55.766;37.672;2023-03-01T05:46:52;99137.16;;;-0.67;70.39
61906;BME280;47863;55.766;37.672;2023-03-01T05:49:18;99139.13;;;-1.09;70.91
61906;BME280;47863;55.766;37.672;2023-03-01T05:51:48;99142.00;;;-1.39;71.30
61906;BME280;47863;55.766;37.672;2023-03-01T05:54:14;99158.03;;;-1.56;71.66
61906;BME280;47863;55.766;37.672;2023-03-01T05:56:39;99134.44;;;-1.84;71.81
61906;BME280;47863;55.766;37.672;2023-03-01T05:59:05;99149.72;;;-1.90;71.83
61906;BME280;47863;55.766;37.672;2023-03-01T06:01:32;99149.06;;;-1.94;71.97
61906;BME280;47863;55.766;37.672;2023-03-01T06:03:58;99151.53;;;-2.05;71.83
61906;BME280;47863;55.766;37.672;2023-03-01T06:06:24;99158.28;;;-2.01;72.01
61906;BME280;47863;55.766;37.672;2023-03-01T06:08:51;99153.13;;;-2.03;71.81
61906;BME280;47863;55.766;37.672;2023-03-01T06:11:16;99116.53;;;-2.33;71.50
61906;BME280;47863;55.766;37.672;2023-03-01T06:13:43;99171.41;;;-2.01;71.53
61906;BME280;47863;55.766;37.672;2023-03-01T06:16:10;99139.00;;;-2.14;71.81
61906;BME280;47863;55.766;37.672;2023-03-01T06:18:37;99151.16;;;-1.99;71.43
61906;BME280;47863;55.766;37.672;2023-03-01T06:21:03;99153.81;;;-1.86;71.20
61906;BME280;47863;55.766;37.672;2023-03-01T06:23:29;99168.09;;;-1.63;71.21
61906;BME280;47863;55.766;37.672;2023-03-01T06:25:54;99165.31;;;-1.20;70.78
61906;BME280;47863;55.766;37.672;2023-03-01T06:28:20;99166.78;;;-0.26;70.13
61906;BME280;47863;55.766;37.672;2023-03-01T06:30:46;99171.94;;;0.49;69.20
61906;BME280;47863;55.766;37.672;2023-03-01T06:33:11;99172.13;;;0.94;68.57
61906;BME280;47863;55.766;37.672;2023-03-01T06:35:37;99158.56;;;1.34;68.69
61906;BME280;47863;55.766;37.672;2023-03-01T06:38:04;99164.56;;;1.59;68.05
61906;BME280;47863;55.766;37.672;2023-03-01T06:40:30;99165.53;;;1.69;68.44
61906;BME280;47863;55.766;37.672;2023-03-01T06:42:56;99175.72;;;1.63;67.57
61906;BME280;47863;55.766;37.672;2023-03-01T06:45:22;99150.66;;;1.57;68.13
61906;BME280;47863;55.766;37.672;2023-03-01T06:47:48;99172.63;;;1.80;68.08
61906;BME280;47863;55.766;37.672;2023-03-01T06:50:18;99154.69;;;2.06;67.64
61906;BME280;47863;55.766;37.672;2023-03-01T06:52:44;99173.41;;;2.26;66.15
61906;BME280;47863;55.766;37.672;2023-03-01T06:55:11;99177.28;;;1.99;66.84
61906;BME280;47863;55.766;37.672;2023-03-01T06:57:38;99182.53;;;2.22;66.85
61906;BME280;47863;55.766;37.672;2023-03-01T07:00:04;99179.22;;;2.84;66.81
61906;BME280;47863;55.766;37.672;2023-03-01T07:02:31;99186.94;;;3.29;67.00
61906;BME280;47863;55.766;37.672;2023-03-01T07:04:57;99179.38;;;3.46;64.46
61906;BME280;47863;55.766;37.672;2023-03-01T07:07:22;99146.59;;;3.16;64.28
61906;BME280;47863;55.766;37.672;2023-03-01T07:09:49;99191.91;;;3.44;64.44
61906;BME280;47863;55.766;37.672;2023-03-01T07:12:15;99200.09;;;3.41;64.83
61906;BME280;47863;55.766;37.672;2023-03-01T07:14:41;99200.84;;;3.73;64.96
61906;BME280;47863;55.766;37.672;2023-03-01T07:17:07;99202.59;;;4.25;64.48
61906;BME280;47863;55.766;37.672;2023-03-01T07:19:33;99196.09;;;4.87;63.97
61906;BME280;47863;55.766;37.672;2023-03-01T07:21:58;99187.72;;;5.11;63.60
61906;BME280;47863;55.766;37.672;2023-03-01T07:24:24;99190.94;;;5.05;64.46
61906;BME280;47863;55.766;37.672;2023-03-01T07:26:50;99208.41;;;5.18;64.48
61906;BME280;47863;55.766;37.672;2023-03-01T07:29:17;99176.91;;;5.42;63.46
61906;BME280;47863;55.766;37.672;2023-03-01T07:31:43;99201.09;;;6.06;61.91
61906;BME280;47863;55.766;37.672;2023-03-01T07:34:09;99205.03;;;6.75;62.27
61906;BME280;47863;55.766;37.672;2023-03-01T07:36:36;99190.69;;;8.08;61.26
61906;BME280;47863;55.766;37.672;2023-03-01T07:39:02;99217.84;;;9.87;60.06
61906;BME280;47863;55.766;37.672;2023-03-01T07:41:29;99218.34;;;11.47;58.50
61906;BME280;47863;55.766;37.672;2023-03-01T07:43:55;99211.00;;;12.90;57.75
61906;BME280;47863;55.766;37.672;2023-03-01T07:46:20;99201.81;;;13.99;56.09
61906;BME280;47863;55.766;37.672;2023-03-01T07:48:46;99208.97;;;15.30;55.03
61906;BME280;47863;55.766;37.672;2023-03-01T07:51:12;99196.75;;;15.74;54.09
61906;BME280;47863;55.766;37.672;2023-03-01T07:53:38;99204.41;;;15.43;54.69
61906;BME280;47863;55.766;37.672;2023-03-01T07:56:06;99214.16;;;15.24;53.59
61906;BME280;47863;55.766;37.672;2023-03-01T07:58:34;99207.88;;;15.04;50.96
61906;BME280;47863;55.766;37.672;2023-03-01T08:01:05;99213.84;;;14.38;52.25
61906;BME280;47863;55.766;37.672;2023-03-01T08:03:32;99225.56;;;13.60;54.63
61906;BME280;47863;55.766;37.672;2023-03-01T08:06:02;99170.50;;;12.70;55.49
61906;BME280;47863;55.766;37.672;2023-03-01T08:08:28;99205.09;;;12.43;56.89
61906;BME280;47863;55.766;37.672;2023-03-01T08:11:01;99215.94;;;12.05;52.47
61906;BME280;47863;55.766;37.672;2023-03-01T08:13:27;99223.38;;;11.65;55.81
61906;BME280;47863;55.766;37.672;2023-03-01T08:15:53;99206.19;;;11.14;55.81
61906;BME280;47863;55.766;37.672;2023-03-01T08:18:20;99216.63;;;11.08;55.97
61906;BME280;47863;55.766;37.672;2023-03-01T08:20:46;99227.53;;;11.07;54.68
61906;BME280;47863;55.766;37.672;2023-03-01T08:23:12;99210.69;;;10.67;56.14
61906;BME280;47863;55.766;37.672;2023-03-01T08:25:38;99231.09;;;11.45;53.21
61906;BME280;47863;55.766;37.672;2023-03-01T08:28:04;99225.75;;;12.79;51.67
61906;BME280;47863;55.766;37.672;2023-03-01T08:30:30;99224.59;;;14.31;50.29
61906;BME280;47863;55.766;37.672;2023-03-01T08:32:56;99217.66;;;15.05;49.20
61906;BME280;47863;55.766;37.672;2023-03-01T08:35:23;99240.13;;;15.45;49.37
61906;BME280;47863;55.766;37.672;2023-03-01T08:37:49;99237.66;;;15.64;49.86
61906;BME280;47863;55.766;37.672;2023-03-01T08:40:14;99231.59;;;16.09;48.77
61906;BME280;47863;55.766;37.672;2023-03-01T08:42:41;99241.31;;;16.36;49.07
61906;BME280;47863;55.766;37.672;2023-03-01T08:45:08;99232.75;;;16.98;49.16
61906;BME280;47863;55.766;37.672;2023-03-01T08:47:34;99224.25;;;17.83;48.51
61906;BME280;47863;55.766;37.672;2023-03-01T08:50:00;99220.13;;;18.06;48.11
61906;BME280;47863;55.766;37.672;2023-03-01T08:52:26;99234.28;;;18.26;46.42
61906;BME280;47863;55.766;37.672;2023-03-01T08:54:52;99241.44;;;18.57;46.38
61906;BME280;47863;55.766;37.672;2023-03-01T08:57:17;99224.53;;;18.00;45.67
61906;BME280;47863;55.766;37.672;2023-03-01T08:59:43;99245.59;;;17.73;47.33
61906;BME280;47863;55.766;37.672;2023-03-01T09:02:14;99253.94;;;18.21;39.40
61906;BME280;47863;55.766;37.672;2023-03-01T09:04:40;99233.94;;;19.08;45.12
61906;BME280;47863;55.766;37.672;2023-03-01T09:07:07;99252.81;;;19.87;43.48
61906;BME280;47863;55.766;37.672;2023-03-01T09:09:33;99242.94;;;20.57;43.12
61906;BME280;47863;55.766;37.672;2023-03-01T09:11:59;99256.31;;;20.58;40.01
61906;BME280;47863;55.766;37.672;2023-03-01T09:14:24;99255.72;;;20.80;40.81
61906;BME280;47863;55.766;37.672;2023-03-01T09:16:50;99203.03;;;20.86;40.86
61906;BME280;47863;55.766;37.672;2023-03-01T09:19:16;99253.47;;;21.63;40.68
61906;BME280;47863;55.766;37.672;2023-03-01T09:21:42;99255.84;;;22.10;40.02
61906;BME280;47863;55.766;37.672;2023-03-01T09:24:18;99232.19;;;22.55;40.04
61906;BME280;47863;55.766;37.672;2023-03-01T09:26:44;99225.72;;;22.39;39.68
61906;BME280;47863;55.766;37.672;2023-03-01T09:29:12;99245.00;;;22.15;40.23
61906;BME280;47863;55.766;37.672;2023-03-01T09:31:37;99214.69;;;21.27;39.73
61906;BME280;47863;55.766;37.672;2023-03-01T09:34:03;99237.09;;;20.36;41.09
61906;BME280;47863;55.766;37.672;2023-03-01T09:36:28;99243.28;;;19.12;42.46
61906;BME280;47863;55.766;37.672;2023-03-01T09:38:54;99247.56;;;17.59;44.55
61906;BME280;47863;55.766;37.672;2023-03-01T09:43:57;99250.50;;;16.80;38.69
61906;BME280;47863;55.766;37.672;2023-03-01T09:46:26;99240.53;;;16.74;41.87
61906;BME280;47863;55.766;37.672;2023-03-01T09:48:57;99233.06;;;15.58;41.96
61906;BME280;47863;55.766;37.672;2023-03-01T09:51:34;99249.59;;;13.90;40.68
61906;BME280;47863;55.766;37.672;2023-03-01T09:54:04;99231.50;;;13.13;43.30
61906;BME280;47863;55.766;37.672;2023-03-01T10:10:21;99237.06;;;18.01;37.89
61906;BME280;47863;55.766;37.672;2023-03-01T10:12:49;99253.81;;;16.24;38.92
61906;BME280;47863;55.766;37.672;2023-03-01T10:15:52;99265.31;;;14.91;40.47
61906;BME280;47863;55.766;37.672;2023-03-01T10:18:15;99253.38;;;12.88;40.62
61906;BME280;47863;55.766;37.672;2023-03-01T10:23:08;99244.16;;;10.31;43.72
61906;BME280;47863;55.766;37.672;2023-03-01T10:25:58;99286.38;;;9.39;42.75
61906;BME280;47863;55.766;37.672;2023-03-01T10:31:02;99284.72;;;8.10;44.37
61906;BME280;47863;55.766;37.672;2023-03-01T10:33:32;99280.00;;;8.65;42.83
61906;BME280;47863;55.766;37.672;2023-03-01T10:36:01;99290.00;;;8.28;43.38
61906;BME280;47863;55.766;37.672;2023-03-01T10:38:30;99276.56;;;7.42;44.33
61906;BME280;47863;55.766;37.672;2023-03-01T10:40:58;99278.97;;;6.53;45.45
61906;BME280;47863;55.766;37.672;2023-03-01T10:43:27;99271.00;;;5.69;45.70
61906;BME280;47863;55.766;37.672;2023-03-01T10:45:56;99248.78;;;5.11;46.13
61906;BME280;47863;55.766;37.672;2023-03-01T10:48:24;99256.88;;;4.81;45.02
61906;BME280;47863;55.766;37.672;2023-03-01T10:53:47;99275.63;;;5.08;44.15
61906;BME280;47863;55.766;37.672;2023-03-01T10:56:14;99273.56;;;6.08;43.79
61906;BME280;47863;55.766;37.672;2023-03-01T10:59:05;99277.19;;;8.66;41.13
61906;BME280;47863;55.766;37.672;2023-03-01T11:01:40;99275.00;;;9.45;40.10
61906;BME280;47863;55.766;37.672;2023-03-01T11:06:41;99260.28;;;11.17;39.76
61906;BME280;47863;55.766;37.672;2023-03-01T11:11:41;99283.75;;;12.52;39.22
61906;BME280;47863;55.766;37.672;2023-03-01T11:14:12;99273.63;;;11.48;40.30
61906;BME280;47863;55.766;37.672;2023-03-01T11:16:40;99276.75;;;10.19;41.50
61906;BME280;47863;55.766;37.672;2023-03-01T11:21:38;99279.31;;;8.28;43.37
61906;BME280;47863;55.766;37.672;2023-03-01T11:24:10;99273.09;;;7.67;44.08
61906;BME280;47863;55.766;37.672;2023-03-01T11:26:40;99274.66;;;7.16;43.59
61906;BME280;47863;55.766;37.672;2023-03-01T11:29:21;99247.78;;;6.73;43.46
61906;BME280;47863;55.766;37.672;2023-03-01T11:31:50;99275.41;;;7.26;43.34
61906;BME280;47863;55.766;37.672;2023-03-01T11:34:23;99278.47;;;6.95;43.38
61906;BME280;47863;55.766;37.672;2023-03-01T11:36:59;99251.38;;;6.27;43.80
61906;BME280;47863;55.766;37.672;2023-03-01T11:39:48;99267.03;;;5.83;43.43
61906;BME280;47863;55.766;37.672;2023-03-01T11:42:29;99280.94;;;5.47;44.50
61906;BME280;47863;55.766;37.672;2023-03-01T11:44:59;99274.09;;;5.06;44.25
61906;BME280;47863;55.766;37.672;2023-03-01T11:47:52;99296.72;;;5.10;43.86
61906;BME280;47863;55.766;37.672;2023-03-01T11:50:41;99291.81;;;5.05;44.51
61906;BME280;47863;55.766;37.672;2023-03-01T11:53:34;99278.88;;;4.62;45.43
61906;BME280;47863;55.766;37.672;2023-03-01T11:56:11;99289.28;;;4.03;45.38
61906;BME280;47863;55.766;37.672;2023-03-01T12:04:31;99292.56;;;3.32;45.55
61906;BME280;47863;55.766;37.672;2023-03-01T12:07:23;99280.81;;;3.46;45.25
61906;BME280;47863;55.766;37.672;2023-03-01T12:20:47;99286.81;;;4.11;44.78
61906;BME280;47863;55.766;37.672;2023-03-01T12:28:51;99308.28;;;3.66;44.64
61906;BME280;47863;55.766;37.672;2023-03-01T12:31:53;99306.00;;;3.41;44.00
61906;BME280;47863;55.766;37.672;2023-03-01T12:34:48;99296.09;;;3.54;45.24
61906;BME280;47863;55.766;37.672;2023-03-01T12:40:10;99298.63;;;6.43;42.36
61906;BME280;47863;55.766;37.672;2023-03-01T12:50:49;99281.59;;;6.26;41.76
61906;BME280;47863;55.766;37.672;2023-03-01T12:53:23;99298.00;;;5.15;41.10
61906;BME280;47863;55.766;37.672;2023-03-01T12:55:51;99294.53;;;4.65;43.07
61906;BME280;47863;55.766;37.672;2023-03-01T13:06:32;99296.22;;;4.25;43.78
61906;BME280;47863;55.766;37.672;2023-03-01T13:09:05;99297.44;;;3.69;44.28
61906;BME280;47863;55.766;37.672;2023-03-01T13:11:36;99237.03;;;2.89;45.06
61906;BME280;47863;55.766;37.672;2023-03-01T13:16:46;99294.47;;;2.43;45.61
61906;BME280;47863;55.766;37.672;2023-03-01T13:19:25;99300.13;;;2.05;45.50
61906;BME280;47863;55.766;37.672;2023-03-01T13:21:53;99295.16;;;1.77;45.75
61906;BME280;47863;55.766;37.672;2023-03-01T13:24:27;99291.81;;;1.40;45.77
61906;BME280;47863;55.766;37.672;2023-03-01T13:27:22;99296.22;;;1.04;46.07
61906;BME280;47863;55.766;37.672;2023-03-01T13:29:59;99287.47;;;0.79;46.57
61906;BME280;47863;55.766;37.672;2023-03-01T13:32:34;99290.38;;;0.64;46.63
61906;BME280;47863;55.766;37.672;2023-03-01T13:37:44;99279.69;;;0.41;46.61
61906;BME280;47863;55.766;37.672;2023-03-01T13:42:45;99257.81;;;0.15;46.95
61906;BME280;47863;55.766;37.672;2023-03-01T13:47:41;99303.56;;;0.14;47.25
61906;BME280;47863;55.766;37.672;2023-03-01T13:50:18;99298.63;;;-0.04;47.09
61906;BME280;47863;55.766;37.672;2023-03-01T13:52:49;99282.41;;;-0.23;47.25
61906;BME280;47863;55.766;37.672;2023-03-01T13:58:14;99279.53;;;-0.33;47.62
61906;BME280;47863;55.766;37.672;2023-03-01T14:00:41;99257.63;;;-0.59;47.87
61906;BME280;47863;55.766;37.672;2023-03-01T14:03:16;99281.94;;;-0.55;48.00
61906;BME280;47863;55.766;37.672;2023-03-01T14:05:50;99277.06;;;-0.62;47.96
61906;BME280;47863;55.766;37.672;2023-03-01T14:08:24;99271.94;;;-0.63;48.11
61906;BME280;47863;55.766;37.672;2023-03-01T14:19:19;99278.38;;;-0.54;47.99
61906;BME280;47863;55.766;37.672;2023-03-01T14:21:59;99234.03;;;-0.86;48.12
61906;BME280;47863;55.766;37.672;2023-03-01T14:24:28;99279.72;;;-0.62;48.67
61906;BME280;47863;55.766;37.672;2023-03-01T14:26:54;99275.09;;;-0.71;48.39
61906;BME280;47863;55.766;37.672;2023-03-01T14:29:34;99269.28;;;-0.76;48.53
61906;BME280;47863;55.766;37.672;2023-03-01T14:32:24;99259.56;;;-0.88;48.76
61906;BME280;47863;55.766;37.672;2023-03-01T14:34:50;99267.88;;;-0.94;48.61
61906;BME280;47863;55.766;37.672;2023-03-01T14:37:28;99251.03;;;-1.05;48.90
61906;BME280;47863;55.766;37.672;2023-03-01T14:39:55;99237.59;;;-1.27;49.12
61906;BME280;47863;55.766;37.672;2023-03-01T14:42:23;99256.63;;;-1.24;49.36
61906;BME280;47863;55.766;37.672;2023-03-01T14:44:51;99248.00;;;-1.26;49.36
61906;BME280;47863;55.766;37.672;2023-03-01T14:47:36;99236.19;;;-1.33;49.79